Beverly, KY (40913)

7:54 PM EDT on August 31, 2016 (GMT -0400)
Harlan | | Change Station

Elev 1552 ft 36.86 °N, 83.36 °W | Updated 19 minutes ago

Clear
Clear
81 °F
Feels Like 83 °F
N
4
Wind Variable Wind from NNW

Today
High -- | Low -- °F
--% Chance of Precip.
Yesterday
High -- | Low -- °F
Precip. -- in
Pressure 29.96 in
Visibility -9999.0 miles
Clouds Clear
Heat Index 83 °F
Dew Point 68 °F
Humidity 65%
Rainfall 0.00 in
Snow Depth Not available.
7:04 AM 8:03 PM
Waning Crescent, 0% visible
METAR KI35 312335Z AUTO 33003KT CLR 27/20 A2996 RMK AO1
Pressure 29.96 in
Visibility -9999.0 miles
Clouds Clear
Heat Index 83 °F
Dew Point 68 °F
Humidity 65%
Rainfall 0.00 in
Snow Depth Not available.
7:04 AM 8:03 PM
Waning Crescent, 0% visible
METAR KI35 312335Z AUTO 33003KT CLR 27/20 A2996 RMK AO1

10-Day Weather Forecast

Almanac

Astronomy

Aug. 31, 2016 Rise Set
Actual Time
Civil Twilight
Nautical Twilight
Astronomical Twilight
Moon
Length of Visible Light
Length of Day
Tomorrow will be .
, % of the Moon is Illuminated

Today's Extremes

State Highs State Lows

Community

WunderPhotos

Upload Photos

1,936,215 photos uploaded!

WunderBlog® & News

Nearby

Air Quality

  Air Quality AQ Index Pollutant
Not available.

Snow Depth

Station Depth Elevation

Earthquake Activity

City Distance Mag. Time & Date
Minimum magnitude displayed is 2.5.

Coastal Water Temperatures

Place Temperature

Stations

Nearby Weather Stations

Station Location Temp. Windchill Dew Point Humidity Wind Precip. Elev Updated Type
                   

Watches & Warnings

There are currently no watches in effect.